Time;durP1;ratioP1;P1;durP2;ratioP2;P2;SDS_P1;SDS_P2;PMS_P1;PMS_P2;Temp;Humidity;BMP_temperature;BMP_pressure;BME280_temperature;BME280_humidity;BME280_pressure;Samples;Min_cycle;Max_cycle;Signal;HPM_P1;HPM_P2
2023/01/16 00:01:17;;;;;;;;;;;28.10;57.40;;;;;;6251199;22;19914;-81
2023/01/16 00:03:44;;;;;;;;;;;28.20;58.80;;;;;;6273912;22;19912;-80
2023/01/16 00:06:10;;;;;;;;;;;28.30;56.50;;;;;;6276023;22;20321;-80
2023/01/16 00:08:37;;;;;;;;;;;28.30;57.50;;;;;;6276386;22;19911;-80
2023/01/16 00:11:04;;;;;;;;;;;28.30;58.20;;;;;;6276389;22;19907;-81
2023/01/16 00:13:31;;;;;;;;;;;28.40;55.40;;;;;;6249612;22;19903;-81
2023/01/16 00:15:57;;;;;;;;;;;28.20;56.00;;;;;;6276572;22;19911;-81
2023/01/16 00:18:24;;;;;;;;;;;28.10;57.90;;;;;;6275996;22;19957;-80
2023/01/16 00:20:51;;;;;;;;;;;27.90;58.00;;;;;;6276034;22;19903;-79
2023/01/16 00:23:17;;;;;;;;;;;27.90;60.50;;;;;;6275791;22;20323;-81
2023/01/16 00:25:44;;;;;;;;;;;27.80;60.10;;;;;;6275740;22;19907;-80
2023/01/16 00:28:11;;;;;;;;;;;27.80;61.90;;;;;;6275990;22;19958;-81
2023/01/16 00:30:38;;;;;;;;;;;27.60;61.80;;;;;;6276863;22;19907;-81
2023/01/16 00:33:05;;;;;;;;;;;27.50;63.70;;;;;;6274471;22;19903;-82
2023/01/16 00:35:32;;;;;;;;;;;27.50;63.90;;;;;;6274462;22;19907;-81
2023/01/16 00:37:59;;;;;;;;;;;27.30;64.20;;;;;;6275097;22;20037;-81
2023/01/16 00:40:25;;;;;;;;;;;27.30;63.40;;;;;;6275259;22;19903;-83
2023/01/16 00:42:52;;;;;;;;;;;27.20;63.50;;;;;;6275099;22;20341;-81
2023/01/16 00:45:19;;;;;;;;;;;27.20;62.50;;;;;;6275294;22;20373;-81
2023/01/16 00:53:40;;;;;;;;;;;27.30;62.70;;;;;;6270904;22;19941;-82
2023/01/16 00:56:07;;;;;;;;;;;27.40;65.00;;;;;;6274806;22;20229;-81
2023/01/16 00:58:35;;;;;;;;;;;27.40;65.80;;;;;;6248227;22;19903;-82
2023/01/16 01:01:02;;;;;;;;;;;27.30;65.80;;;;;;6276095;22;19904;-82
2023/01/16 01:03:29;;;;;;;;;;;27.30;66.20;;;;;;6275309;22;19911;-82
2023/01/16 01:05:55;;;;;;;;;;;27.30;65.80;;;;;;6249337;22;19905;-82
2023/01/16 01:08:22;;;;;;;;;;;27.30;65.90;;;;;;6248436;22;19923;-82
2023/01/16 01:10:49;;;;;;;;;;;27.30;65.90;;;;;;6275220;22;20456;-82
2023/01/16 01:13:15;;;;;;;;;;;27.30;66.40;;;;;;6274377;22;19907;-82
2023/01/16 01:15:42;;;;;;;;;;;27.30;64.90;;;;;;6247333;22;19904;-81
2023/01/16 01:18:09;;;;;;;;;;;27.30;64.70;;;;;;6248061;22;19903;-81
2023/01/16 01:20:36;;;;;;;;;;;27.20;60.70;;;;;;6273558;22;19939;-82
2023/01/16 01:23:02;;;;;;;;;;;27.20;61.30;;;;;;6274912;22;19911;-82
2023/01/16 01:25:29;;;;;;;;;;;27.10;61.70;;;;;;6275899;22;20215;-82
2023/01/16 01:27:55;;;;;;;;;;;27.00;61.30;;;;;;6275173;22;19903;-81
2023/01/16 01:30:22;;;;;;;;;;;27.00;60.80;;;;;;6275264;22;20246;-82
2023/01/16 01:32:49;;;;;;;;;;;27.00;60.60;;;;;;6276000;22;19910;-82
2023/01/16 01:35:17;;;;;;;;;;;27.00;59.00;;;;;;6276082;22;19904;-82
2023/01/16 01:37:43;;;;;;;;;;;27.10;59.70;;;;;;6276177;22;19961;-82
2023/01/16 01:40:10;;;;;;;;;;;27.10;60.90;;;;;;6276623;22;19904;-82
2023/01/16 01:42:44;;;;;;;;;;;27.20;62.00;;;;;;6276575;22;20056;-81
2023/01/16 01:45:29;;;;;;;;;;;27.20;62.60;;;;;;6276641;22;20010;-81
2023/01/16 01:47:56;;;;;;;;;;;27.20;62.40;;;;;;6277097;22;19907;-82
2023/01/16 01:50:28;;;;;;;;;;;27.30;61.70;;;;;;6277769;22;19922;-81
2023/01/16 01:52:55;;;;;;;;;;;27.30;61.70;;;;;;6276876;22;19972;-81
2023/01/16 01:55:22;;;;;;;;;;;27.40;61.60;;;;;;6249846;22;19907;-81
2023/01/16 01:57:52;;;;;;;;;;;27.50;62.30;;;;;;6248906;22;20295;-81
2023/01/16 02:00:19;;;;;;;;;;;27.60;62.90;;;;;;6249273;22;19908;-82
2023/01/16 02:02:48;;;;;;;;;;;27.50;61.90;;;;;;6246089;22;19915;-81
2023/01/16 02:05:16;;;;;;;;;;;27.50;62.30;;;;;;6271684;22;19903;-82
2023/01/16 02:07:43;;;;;;;;;;;27.50;61.70;;;;;;6275260;22;20364;-82
2023/01/16 02:10:13;;;;;;;;;;;27.40;62.10;;;;;;6249701;22;19903;-82
2023/01/16 02:12:39;;;;;;;;;;;27.30;61.30;;;;;;6275838;22;20237;-82
2023/01/16 02:15:06;;;;;;;;;;;27.30;62.20;;;;;;6275958;22;20184;-81
2023/01/16 02:20:18;;;;;;;;;;;27.30;60.20;;;;;;6276899;22;19961;-82
2023/01/16 02:23:03;;;;;;;;;;;27.30;60.90;;;;;;6276445;22;20293;-82
2023/01/16 02:25:48;;;;;;;;;;;27.30;61.10;;;;;;6276290;22;19904;-82
2023/01/16 02:28:17;;;;;;;;;;;27.30;61.50;;;;;;6276744;22;19903;-82
2023/01/16 02:30:47;;;;;;;;;;;27.30;61.80;;;;;;6277159;22;19914;-82
2023/01/16 02:33:14;;;;;;;;;;;27.30;61.00;;;;;;6276580;22;19978;-82
2023/01/16 02:35:40;;;;;;;;;;;27.30;61.90;;;;;;6276557;22;19911;-82
2023/01/16 02:38:26;;;;;;;;;;;27.40;62.10;;;;;;6276032;22;20265;-82
2023/01/16 02:41:01;;;;;;;;;;;27.40;61.10;;;;;;6276851;22;19938;-82
2023/01/16 02:43:38;;;;;;;;;;;27.40;61.90;;;;;;6249700;22;19911;-82
2023/01/16 02:46:23;;;;;;;;;;;27.40;62.10;;;;;;6249632;22;19907;-82
2023/01/16 02:48:52;;;;;;;;;;;27.40;61.50;;;;;;6280053;22;19907;-82
2023/01/16 09:39:07;;;;;;;;;;;24.70;72.90;;;;;;6268084;22;20291;-70
2023/01/16 09:44:20;;;;;;;;;;;24.80;72.80;;;;;;6249617;22;20428;-69
2023/01/16 09:46:48;;;;;;;;;;;24.80;73.30;;;;;;6245766;22;19982;-70
2023/01/16 09:49:29;;;;;;;;;;;24.80;72.90;;;;;;6245814;22;19907;-71
2023/01/16 10:00:20;;;;;;;;;;;24.70;73.10;;;;;;6278023;22;19926;-71
2023/01/16 10:02:47;;;;;;;;;;;24.70;72.90;;;;;;6303365;22;19915;-71
2023/01/16 10:05:15;;;;;;;;;;;24.70;73.20;;;;;;6302877;22;20223;-71
2023/01/16 10:08:00;;;;;;;;;;;24.70;73.30;;;;;;6303238;22;19910;-71
2023/01/16 10:10:45;;;;;;;;;;;24.70;73.10;;;;;;6303114;22;19911;-71
2023/01/16 10:13:24;;;;;;;;;;;24.60;73.30;;;;;;6303573;22;19907;-72
2023/01/16 10:16:12;;;;;;;;;;;24.60;73.70;;;;;;6302613;22;19913;-70
2023/01/16 10:18:50;;;;;;;;;;;24.50;73.70;;;;;;6302517;22;19907;-69
2023/01/16 10:21:20;;;;;;;;;;;24.60;73.80;;;;;;6276320;22;19941;-70
2023/01/16 10:23:47;;;;;;;;;;;24.50;73.80;;;;;;6302598;22;20359;-70
2023/01/16 10:26:13;;;;;;;;;;;24.50;73.60;;;;;;6303859;22;19907;-70
2023/01/16 10:28:56;;;;;;;;;;;24.60;73.40;;;;;;6303290;22;19911;-69
2023/01/16 10:31:22;;;;;;;;;;;24.50;73.50;;;;;;6303757;22;20381;-69
2023/01/16 10:33:49;;;;;;;;;;;24.50;73.30;;;;;;6303091;22;19942;-70
2023/01/16 10:36:16;;;;;;;;;;;24.40;73.40;;;;;;6303139;22;19942;-70
2023/01/16 11:46:06;;;;;;;;;;;24.20;73.10;;;;;;6284560;22;19921;-72
2023/01/16 11:48:40;;;;;;;;;;;24.20;72.80;;;;;;6308228;22;19903;-72
2023/01/16 11:51:10;;;;;;;;;;;24.10;72.80;;;;;;6308004;22;19933;-72
2023/01/16 11:53:36;;;;;;;;;;;24.10;73.10;;;;;;6280588;22;19985;-72
2023/01/16 11:56:12;;;;;;;;;;;24.10;73.20;;;;;;6307224;22;19949;-72
2023/01/16 11:58:51;;;;;;;;;;;24.10;73.40;;;;;;6307129;22;19910;-72
2023/01/16 12:01:27;;;;;;;;;;;24.00;73.60;;;;;;6280249;22;19907;-72
2023/01/16 12:04:16;;;;;;;;;;;24.00;73.90;;;;;;6307050;22;19911;-72
2023/01/16 12:06:53;;;;;;;;;;;24.00;73.90;;;;;;6288322;22;19910;-72
2023/01/16 12:09:24;;;;;;;;;;;24.00;74.00;;;;;;6307980;22;19910;-72
2023/01/16 12:11:56;;;;;;;;;;;23.90;74.00;;;;;;6280129;22;19903;-72
2023/01/16 12:14:38;;;;;;;;;;;23.90;74.00;;;;;;6306321;22;19907;-72
2023/01/16 12:17:04;;;;;;;;;;;23.90;74.00;;;;;;6280203;22;20010;-72
2023/01/16 12:19:34;;;;;;;;;;;23.80;74.20;;;;;;6307333;22;20314;-72
2023/01/16 12:22:19;;;;;;;;;;;23.80;74.40;;;;;;6307089;22;19903;-72
2023/01/16 12:24:45;;;;;;;;;;;23.80;74.60;;;;;;6306948;22;19911;-72
2023/01/16 12:27:18;;;;;;;;;;;23.80;74.80;;;;;;6307663;22;19906;-72
2023/01/16 12:30:03;;;;;;;;;;;23.80;74.90;;;;;;6307447;22;19934;-72
2023/01/16 12:32:48;;;;;;;;;;;23.80;75.20;;;;;;6307474;22;20317;-73
2023/01/16 12:35:23;;;;;;;;;;;23.80;75.50;;;;;;6307799;22;20326;-72
2023/01/16 12:37:55;;;;;;;;;;;23.80;75.60;;;;;;6280194;22;19903;-72
2023/01/16 12:40:27;;;;;;;;;;;23.80;75.50;;;;;;6280551;22;19938;-72
2023/01/16 12:43:20;;;;;;;;;;;23.80;75.40;;;;;;6279486;22;19922;-72
2023/01/16 12:45:56;;;;;;;;;;;23.80;75.00;;;;;;6283120;22;19907;-72
2023/01/16 12:48:23;;;;;;;;;;;23.80;75.20;;;;;;6307362;22;19906;-72
2023/01/16 12:50:50;;;;;;;;;;;23.80;75.40;;;;;;6306875;22;20290;-72
2023/01/16 12:53:21;;;;;;;;;;;23.80;75.40;;;;;;6306641;22;19911;-72
2023/01/16 12:56:06;;;;;;;;;;;23.80;75.50;;;;;;6279942;22;19914;-72
2023/01/16 12:58:34;;;;;;;;;;;23.80;75.60;;;;;;6307845;22;19918;-72
2023/01/16 13:01:01;;;;;;;;;;;23.80;75.50;;;;;;6280234;22;19903;-72
2023/01/16 13:03:39;;;;;;;;;;;23.70;75.60;;;;;;6306917;22;19930;-72
2023/01/16 13:06:07;;;;;;;;;;;23.80;75.50;;;;;;6307079;22;19910;-72
2023/01/16 13:08:39;;;;;;;;;;;23.80;75.60;;;;;;6280128;22;19907;-72
2023/01/16 13:13:56;;;;;;;;;;;23.80;75.50;;;;;;6283114;22;19945;-72
2023/01/16 13:16:37;;;;;;;;;;;23.70;75.50;;;;;;6279848;22;19986;-72
2023/01/16 13:19:11;;;;;;;;;;;23.70;75.40;;;;;;6279933;22;20226;-72
2023/01/16 13:21:50;;;;;;;;;;;23.70;75.60;;;;;;6279552;22;19918;-72
2023/01/16 13:24:18;;;;;;;;;;;23.70;75.80;;;;;;6279023;22;19919;-72
2023/01/16 13:26:45;;;;;;;;;;;23.60;75.70;;;;;;6307336;22;20234;-73
2023/01/16 13:29:22;;;;;;;;;;;23.60;76.10;;;;;;6279453;22;20330;-73
2023/01/16 13:31:50;;;;;;;;;;;23.60;76.10;;;;;;6279480;22;19926;-73
2023/01/16 13:34:45;;;;;;;;;;;23.60;76.30;;;;;;6279884;22;19907;-73
2023/01/16 13:37:30;;;;;;;;;;;23.50;76.40;;;;;;6274241;22;19915;-73
2023/01/16 13:40:14;;;;;;;;;;;23.50;76.50;;;;;;6306815;22;19903;-73
2023/01/16 13:42:42;;;;;;;;;;;23.50;76.50;;;;;;6305631;22;20392;-72
2023/01/16 13:48:00;;;;;;;;;;;23.50;76.60;;;;;;6283345;22;19949;-72
2023/01/16 13:50:28;;;;;;;;;;;23.40;76.70;;;;;;6278804;22;20147;-72
2023/01/16 13:53:04;;;;;;;;;;;23.40;76.70;;;;;;6305310;22;19903;-72
2023/01/16 13:55:40;;;;;;;;;;;23.40;76.90;;;;;;6306225;22;19910;-72
2023/01/16 13:58:25;;;;;;;;;;;23.30;77.00;;;;;;6279625;22;19907;-72
2023/01/16 14:00:59;;;;;;;;;;;23.30;77.20;;;;;;6306865;22;20219;-72
2023/01/16 14:03:29;;;;;;;;;;;23.30;77.20;;;;;;6279575;22;19914;-72
2023/01/16 14:06:11;;;;;;;;;;;23.30;77.20;;;;;;6306782;22;19961;-72
2023/01/16 14:09:07;;;;;;;;;;;23.30;77.30;;;;;;6306884;22;20233;-72
2023/01/16 14:11:52;;;;;;;;;;;23.30;77.40;;;;;;6279352;22;19906;-72
2023/01/16 14:16:30;;;;;;;;;;;23.30;77.40;;;;;;6306009;22;19978;-72
2023/01/16 14:17:05;;;;;;;;;;;23.30;77.50;;;;;;6306757;22;19927;-72
2023/01/16 14:19:54;;;;;;;;;;;23.20;77.60;;;;;;6306817;22;19908;-73
2023/01/16 14:24:54;;;;;;;;;;;23.20;77.80;;;;;;6280078;22;19915;-72
2023/01/16 14:27:25;;;;;;;;;;;23.20;77.80;;;;;;6306752;22;19978;-72
2023/01/16 14:29:54;;;;;;;;;;;23.20;77.90;;;;;;6279185;22;19914;-72
2023/01/16 14:32:23;;;;;;;;;;;23.20;78.00;;;;;;6306940;22;19903;-72
2023/01/16 14:34:51;;;;;;;;;;;23.20;78.10;;;;;;6306363;22;19982;-72
2023/01/16 14:37:28;;;;;;;;;;;23.10;78.10;;;;;;6306623;22;19911;-72
2023/01/16 14:39:57;;;;;;;;;;;23.10;78.20;;;;;;6279301;22;19903;-72
2023/01/16 14:56:44;;;;;;;;;;;23.00;78.80;;;;;;6308748;22;19981;-72
2023/01/16 14:59:13;;;;;;;;;;;23.00;78.90;;;;;;6281181;22;19903;-72
2023/01/16 15:04:39;;;;;;;;;;;22.90;79.20;;;;;;6308066;22;19918;-72
2023/01/16 15:07:05;;;;;;;;;;;22.90;79.50;;;;;;6281137;22;19981;-72
2023/01/16 15:09:32;;;;;;;;;;;22.90;79.50;;;;;;6280997;22;19927;-72
2023/01/16 15:12:00;;;;;;;;;;;22.80;79.40;;;;;;6308070;22;19939;-73
2023/01/16 15:14:28;;;;;;;;;;;22.80;79.60;;;;;;6308599;22;19918;-71
2023/01/16 15:22:38;;;;;;;;;;;22.80;79.90;;;;;;6307552;22;19956;-72
2023/01/16 15:25:08;;;;;;;;;;;22.80;79.90;;;;;;6280942;22;19983;-72
2023/01/16 15:27:34;;;;;;;;;;;22.80;79.90;;;;;;6280480;22;19911;-72
2023/01/16 15:30:03;;;;;;;;;;;22.80;80.00;;;;;;6279875;22;20215;-72
2023/01/16 15:32:30;;;;;;;;;;;22.80;80.10;;;;;;6281178;22;19902;-72
2023/01/16 15:35:25;;;;;;;;;;;22.80;79.90;;;;;;6281597;22;19903;-72
2023/01/16 15:37:53;;;;;;;;;;;22.80;80.10;;;;;;6275574;22;19977;-72
2023/01/16 15:40:23;;;;;;;;;;;22.80;80.30;;;;;;6280520;22;20309;-72
2023/01/16 15:48:39;;;;;;;;;;;22.80;80.50;;;;;;6307432;22;19925;-72
2023/01/16 15:51:14;;;;;;;;;;;22.80;80.40;;;;;;6307680;22;20349;-73
2023/01/16 15:53:43;;;;;;;;;;;22.80;80.40;;;;;;6281165;22;20318;-72
2023/01/16 15:56:19;;;;;;;;;;;22.80;80.50;;;;;;6307897;22;19903;-73
2023/01/16 15:58:49;;;;;;;;;;;22.80;80.80;;;;;;6255088;22;19903;-72
2023/01/16 16:01:16;;;;;;;;;;;22.80;81.50;;;;;;6280805;22;19910;-72
2023/01/16 16:03:44;;;;;;;;;;;22.80;81.70;;;;;;6280040;22;20318;-72
2023/01/16 16:06:11;;;;;;;;;;;22.80;81.90;;;;;;6308008;22;19903;-72
2023/01/16 16:08:39;;;;;;;;;;;22.80;81.80;;;;;;6280518;22;19910;-73
2023/01/16 16:13:51;;;;;;;;;;;22.80;81.90;;;;;;6284293;22;20237;-72
2023/01/16 16:19:06;;;;;;;;;;;22.80;81.60;;;;;;6307868;22;20335;-72
2023/01/16 16:21:35;;;;;;;;;;;22.80;81.70;;;;;;6308177;22;19938;-72
2023/01/16 16:24:05;;;;;;;;;;;22.80;81.50;;;;;;6280578;22;19994;-73
2023/01/16 16:26:34;;;;;;;;;;;22.80;81.40;;;;;;6308333;22;19942;-72
2023/01/16 16:29:02;;;;;;;;;;;22.80;81.30;;;;;;6307646;22;19914;-73
2023/01/16 16:31:30;;;;;;;;;;;22.80;81.50;;;;;;6279956;22;19976;-72
2023/01/16 16:34:00;;;;;;;;;;;22.70;81.60;;;;;;6280396;22;19903;-72
2023/01/16 16:36:27;;;;;;;;;;;22.70;81.60;;;;;;6308023;22;19918;-72
2023/01/16 16:38:54;;;;;;;;;;;22.70;81.70;;;;;;6280187;22;20321;-73
2023/01/16 16:41:24;;;;;;;;;;;22.70;81.90;;;;;;6280464;22;19964;-72
2023/01/16 16:43:51;;;;;;;;;;;22.70;81.90;;;;;;6306170;22;20277;-72
2023/01/16 16:46:23;;;;;;;;;;;22.70;81.90;;;;;;6307276;22;20282;-72
2023/01/16 16:48:54;;;;;;;;;;;22.70;81.90;;;;;;6307723;22;19903;-73
2023/01/16 16:51:20;;;;;;;;;;;22.70;82.00;;;;;;6279724;22;19906;-72
2023/01/16 16:53:48;;;;;;;;;;;22.70;81.90;;;;;;6306799;22;19907;-73
2023/01/16 16:56:18;;;;;;;;;;;22.80;81.90;;;;;;6307656;22;19910;-72
2023/01/16 16:58:45;;;;;;;;;;;22.80;82.00;;;;;;6307233;22;20314;-72
2023/01/16 17:01:12;;;;;;;;;;;22.70;83.50;;;;;;6280585;22;19903;-73
2023/01/16 17:03:39;;;;;;;;;;;22.70;85.30;;;;;;6307161;22;19910;-73
2023/01/16 17:06:06;;;;;;;;;;;22.50;86.40;;;;;;6280076;22;19948;-73
2023/01/16 17:08:33;;;;;;;;;;;22.40;87.40;;;;;;6280110;22;19907;-73
2023/01/16 17:10:59;;;;;;;;;;;22.30;88.40;;;;;;6307118;22;19903;-73
2023/01/16 17:13:26;;;;;;;;;;;22.20;88.70;;;;;;6279956;22;20037;-74
2023/01/16 17:15:55;;;;;;;;;;;22.10;89.40;;;;;;6306794;22;19934;-73
2023/01/16 17:18:22;;;;;;;;;;;22.10;89.80;;;;;;6305624;22;19903;-74
2023/01/16 17:20:52;;;;;;;;;;;21.80;90.00;;;;;;6306776;22;19911;-73
2023/01/16 17:23:19;;;;;;;;;;;21.80;90.40;;;;;;6305862;22;20358;-74
2023/01/16 17:25:46;;;;;;;;;;;21.70;90.80;;;;;;6307204;22;19903;-74
2023/01/16 17:28:12;;;;;;;;;;;21.60;91.20;;;;;;6306899;22;19902;-74
2023/01/16 17:30:39;;;;;;;;;;;21.50;91.50;;;;;;6279064;22;20226;-73
2023/01/16 17:33:12;;;;;;;;;;;21.50;91.70;;;;;;6306628;22;20207;-73
2023/01/16 17:35:42;;;;;;;;;;;21.60;92.00;;;;;;6307052;22;19910;-73
2023/01/16 17:38:10;;;;;;;;;;;21.70;92.10;;;;;;6306308;22;19907;-74
2023/01/16 17:40:37;;;;;;;;;;;21.70;92.10;;;;;;6306338;22;20378;-73
2023/01/16 17:45:59;;;;;;;;;;;21.40;92.10;;;;;;6306754;22;19913;-74
2023/01/16 17:48:26;;;;;;;;;;;21.50;92.20;;;;;;6282644;22;19907;-73
2023/01/16 17:50:53;;;;;;;;;;;21.50;92.30;;;;;;6306871;22;19910;-78
2023/01/16 17:53:21;;;;;;;;;;;21.60;92.50;;;;;;6304464;22;19945;-74
2023/01/16 17:55:51;;;;;;;;;;;21.60;92.20;;;;;;6305465;22;19907;-74
2023/01/16 17:58:23;;;;;;;;;;;21.60;92.10;;;;;;6306216;22;19942;-74
2023/01/16 18:00:51;;;;;;;;;;;21.70;92.20;;;;;;6305908;22;19903;-73
2023/01/16 18:03:18;;;;;;;;;;;21.70;92.10;;;;;;6303418;22;19919;-73
2023/01/16 18:05:44;;;;;;;;;;;21.70;92.00;;;;;;6306121;22;19922;-74
2023/01/16 18:08:13;;;;;;;;;;;21.60;92.00;;;;;;6306394;22;19950;-74
2023/01/16 18:10:40;;;;;;;;;;;21.70;92.10;;;;;;6306850;22;19914;-74
2023/01/16 18:17:21;;;;;;;;;;;21.70;92.30;;;;;;6306960;22;20139;-72
2023/01/16 22:28:47;;;;;;;;;;;25.00;74.80;;;;;;6303906;22;20387;-77
2023/01/16 22:31:14;;;;;;;;;;;25.00;75.10;;;;;;6304938;22;19938;-77
2023/01/16 22:33:40;;;;;;;;;;;24.90;73.50;;;;;;6305457;22;20350;-77
2023/01/16 22:36:09;;;;;;;;;;;24.90;73.40;;;;;;6306231;22;19977;-77
2023/01/16 22:38:38;;;;;;;;;;;24.90;74.00;;;;;;6306080;22;20207;-77
2023/01/16 22:41:05;;;;;;;;;;;24.90;74.10;;;;;;6305589;22;20234;-78
2023/01/16 22:46:23;;;;;;;;;;;25.10;74.80;;;;;;6301763;22;19953;-76
2023/01/16 22:48:50;;;;;;;;;;;25.30;75.10;;;;;;6305410;22;19910;-76
2023/01/16 22:51:17;;;;;;;;;;;25.60;74.40;;;;;;6305002;22;19986;-76
2023/01/16 22:53:43;;;;;;;;;;;25.80;73.30;;;;;;6303634;22;19936;-76
2023/01/16 22:56:10;;;;;;;;;;;25.80;73.00;;;;;;6305742;22;19910;-76
2023/01/16 22:58:37;;;;;;;;;;;26.10;72.80;;;;;;6304524;22;19948;-75
2023/01/16 23:01:14;;;;;;;;;;;26.20;71.00;;;;;;6277638;22;19929;-76
2023/01/16 23:03:40;;;;;;;;;;;26.30;70.70;;;;;;6305813;22;19918;-75
2023/01/16 23:06:07;;;;;;;;;;;26.30;69.80;;;;;;6308454;22;19907;-77
2023/01/16 23:08:34;;;;;;;;;;;26.20;69.90;;;;;;6307502;22;20238;-76
2023/01/16 23:11:07;;;;;;;;;;;26.30;70.10;;;;;;6307536;22;19946;-76
2023/01/16 23:13:33;;;;;;;;;;;26.30;71.10;;;;;;6303291;22;20001;-77
2023/01/16 23:16:00;;;;;;;;;;;26.30;69.70;;;;;;6306182;22;19914;-77
2023/01/16 23:18:27;;;;;;;;;;;26.30;70.50;;;;;;6302722;22;19981;-77
2023/01/16 23:20:56;;;;;;;;;;;26.40;70.10;;;;;;6304947;22;19907;-79
2023/01/16 23:23:24;;;;;;;;;;;26.40;69.30;;;;;;6252262;22;20222;-79
2023/01/16 23:25:50;;;;;;;;;;;26.40;69.10;;;;;;6281428;22;19953;-78
